Overview Statistics Trail Chart Weather Telemetry Raw packets
 

This is the latest recevied weather packets stored in our database for station/object VK2EHQ. If no packets are shown the sender has not sent any weather packets the latest 10 day(s).

<< 1 2 3 4 >>
Time Temp. Humidity Pressure Rain* Wind** Luminosity Snow
1788580873 29.44° C 31% 1008.5 hPa 0 mm - - -
1788580273 29.44° C 30% 1008.8 hPa 0 mm - - -
1788579673 28.89° C 31% 1009 hPa 0 mm - - -
1788579072 28.89° C 30% 1009.2 hPa 0 mm - - -
1788578472 29.44° C 30% 1009.5 hPa 0 mm - - -
1788577272 28.33° C 32% 1009.9 hPa 0 mm - - -
1788576672 28.33° C 32% 1010.4 hPa 0 mm - - -
1788576072 27.78° C 33% 1010.8 hPa 0 mm - - -
1788575472 27.78° C 33% 1011.1 hPa 0 mm - - -
1788574872 27.22° C 33% 1011.6 hPa 0 mm - - -
1788574302 27.22° C 32% 1012 hPa 0 mm - - -
1788573672 27.22° C 33% 1012.2 hPa 0 mm - - -
1788573072 27.22° C 34% 1012.4 hPa 0 mm - - -
1788572472 26.67° C 35% 1012.6 hPa 0 mm - - -
1788571872 26.11° C 35% 1012.9 hPa 0 mm - - -
1788571272 26.11° C 36% 1013.2 hPa 0 mm - - -
1788570672 26.11° C 36% 1013.5 hPa 0 mm - - -
1788570072 25.56° C 37% 1013.7 hPa 0 mm - - -
1788569471 25° C 38% 1014.1 hPa 0 mm - - -
1788568871 24.44° C 39% 1014.4 hPa 0 mm - - -
1788568271 24.44° C 39% 1014.6 hPa 0 mm - - -
1788567671 24.44° C 37% 1014.7 hPa 0 mm - - -
1788567071 23.89° C 39% 1015 hPa 0 mm - - -
1788566471 23.33° C 42% 1015.3 hPa 0 mm - - -
1788565871 22.78° C 43% 1015.6 hPa 0 mm - - -

* Rain latest hour (hover to see other rain measurements)
** Current wind speed in m/s (hover to see current wind gust speed)